sensor_id;sensor_type;location;lat;lon;timestamp;pressure;altitude;pressure_sealevel;temperature;humidity
5062;BME280;2351;50.812;12.872;2022-09-30T00:00:09;97056.69;;;7.76;91.44
5062;BME280;2351;50.812;12.872;2022-09-30T00:02:41;97061.25;;;7.74;92.04
5062;BME280;2351;50.812;12.872;2022-09-30T00:05:12;97063.19;;;7.72;91.70
5062;BME280;2351;50.812;12.872;2022-09-30T00:07:44;97062.50;;;7.70;91.81
5062;BME280;2351;50.812;12.872;2022-09-30T00:10:16;97069.56;;;7.69;92.34
5062;BME280;2351;50.812;12.872;2022-09-30T00:12:47;97074.00;;;7.69;92.33
5062;BME280;2351;50.812;12.872;2022-09-30T00:15:20;97070.53;;;7.68;92.38
5062;BME280;2351;50.812;12.872;2022-09-30T00:17:51;97074.00;;;7.69;92.31
5062;BME280;2351;50.812;12.872;2022-09-30T00:20:23;97073.03;;;7.70;92.51
5062;BME280;2351;50.812;12.872;2022-09-30T00:22:54;97081.63;;;7.72;92.92
5062;BME280;2351;50.812;12.872;2022-09-30T00:25:26;97068.44;;;7.72;92.88
5062;BME280;2351;50.812;12.872;2022-09-30T00:27:58;97079.13;;;7.71;93.13
5062;BME280;2351;50.812;12.872;2022-09-30T00:30:31;97075.81;;;7.68;92.85
5062;BME280;2351;50.812;12.872;2022-09-30T00:33:03;97069.84;;;7.66;93.34
5062;BME280;2351;50.812;12.872;2022-09-30T00:35:35;97083.00;;;7.66;93.05
5062;BME280;2351;50.812;12.872;2022-09-30T00:38:07;97087.31;;;7.67;93.25
5062;BME280;2351;50.812;12.872;2022-09-30T00:40:38;97083.72;;;7.68;93.44
5062;BME280;2351;50.812;12.872;2022-09-30T00:43:11;97088.13;;;7.68;93.52
5062;BME280;2351;50.812;12.872;2022-09-30T00:45:50;97099.34;;;7.70;93.81
5062;BME280;2351;50.812;12.872;2022-09-30T00:48:28;97086.19;;;7.70;93.66
5062;BME280;2351;50.812;12.872;2022-09-30T00:51:02;97083.72;;;7.68;93.44
5062;BME280;2351;50.812;12.872;2022-09-30T00:53:41;97092.69;;;7.66;93.95
5062;BME280;2351;50.812;12.872;2022-09-30T00:56:17;97099.91;;;7.64;93.80
5062;BME280;2351;50.812;12.872;2022-09-30T00:58:53;97101.16;;;7.60;93.96
5062;BME280;2351;50.812;12.872;2022-09-30T01:01:29;97099.75;;;7.56;94.16
5062;BME280;2351;50.812;12.872;2022-09-30T01:04:05;97100.81;;;7.53;94.54
5062;BME280;2351;50.812;12.872;2022-09-30T01:06:40;97101.69;;;7.53;94.64
5062;BME280;2351;50.812;12.872;2022-09-30T01:09:12;97101.69;;;7.53;94.54
5062;BME280;2351;50.812;12.872;2022-09-30T01:11:44;97101.69;;;7.53;94.35
5062;BME280;2351;50.812;12.872;2022-09-30T01:14:19;97109.56;;;7.53;94.85
5062;BME280;2351;50.812;12.872;2022-09-30T01:16:59;97101.69;;;7.53;94.95
5062;BME280;2351;50.812;12.872;2022-09-30T01:19:57;97102.63;;;7.52;94.63
5062;BME280;2351;50.812;12.872;2022-09-30T01:22:40;97106.94;;;7.53;94.87
5062;BME280;2351;50.812;12.872;2022-09-30T01:25:47;97105.00;;;7.56;95.22
5062;BME280;2351;50.812;12.872;2022-09-30T01:28:50;97101.53;;;7.55;95.22
5062;BME280;2351;50.812;12.872;2022-09-30T01:31:35;97096.41;;;7.53;95.01
5062;BME280;2351;50.812;12.872;2022-09-30T01:34:16;97092.94;;;7.53;95.19
5062;BME280;2351;50.812;12.872;2022-09-30T01:37:02;97101.69;;;7.53;95.07
5062;BME280;2351;50.812;12.872;2022-09-30T01:39:43;97097.22;;;7.54;95.53
5062;BME280;2351;50.812;12.872;2022-09-30T01:42:25;97102.63;;;7.52;95.27
5062;BME280;2351;50.812;12.872;2022-09-30T01:45:02;97100.97;;;7.51;95.45
5062;BME280;2351;50.812;12.872;2022-09-30T01:47:43;97110.53;;;7.52;95.41
5062;BME280;2351;50.812;12.872;2022-09-30T01:50:20;97118.28;;;7.54;95.84
5062;BME280;2351;50.812;12.872;2022-09-30T01:53:00;97118.19;;;7.56;95.86
5062;BME280;2351;50.812;12.872;2022-09-30T01:55:37;97121.63;;;7.56;96.02
5062;BME280;2351;50.812;12.872;2022-09-30T01:58:13;97115.28;;;7.59;96.11
5062;BME280;2351;50.812;12.872;2022-09-30T02:00:49;97124.16;;;7.58;95.98
5062;BME280;2351;50.812;12.872;2022-09-30T02:03:27;97124.16;;;7.58;96.23
5062;BME280;2351;50.812;12.872;2022-09-30T02:06:03;97127.75;;;7.57;96.20
5062;BME280;2351;50.812;12.872;2022-09-30T02:08:39;97126.91;;;7.56;96.26
5062;BME280;2351;50.812;12.872;2022-09-30T02:11:14;97133.00;;;7.57;96.38
5062;BME280;2351;50.812;12.872;2022-09-30T02:13:50;97134.69;;;7.58;96.18
5062;BME280;2351;50.812;12.872;2022-09-30T02:16:28;97136.22;;;7.60;96.20
5062;BME280;2351;50.812;12.872;2022-09-30T02:19:08;97145.78;;;7.61;96.45
5062;BME280;2351;50.812;12.872;2022-09-30T02:21:43;97151.03;;;7.61;96.47
5062;BME280;2351;50.812;12.872;2022-09-30T02:24:17;97150.22;;;7.61;96.31
5062;BME280;2351;50.812;12.872;2022-09-30T02:26:55;97146.75;;;7.60;96.31
5062;BME280;2351;50.812;12.872;2022-09-30T02:29:33;97145.91;;;7.60;96.59
5062;BME280;2351;50.812;12.872;2022-09-30T02:32:12;97143.28;;;7.60;96.64
5062;BME280;2351;50.812;12.872;2022-09-30T02:34:49;97147.69;;;7.59;97.01
5062;BME280;2351;50.812;12.872;2022-09-30T02:37:26;97146.88;;;7.59;97.05
5062;BME280;2351;50.812;12.872;2022-09-30T02:40:01;97147.84;;;7.58;96.73
5062;BME280;2351;50.812;12.872;2022-09-30T02:42:36;97133.84;;;7.57;96.92
5062;BME280;2351;50.812;12.872;2022-09-30T02:45:11;97138.03;;;7.60;97.25
5062;BME280;2351;50.812;12.872;2022-09-30T02:47:55;97138.84;;;7.60;97.11
5062;BME280;2351;50.812;12.872;2022-09-30T02:50:33;97143.28;;;7.60;96.90
5062;BME280;2351;50.812;12.872;2022-09-30T02:53:17;97140.38;;;7.63;97.37
5062;BME280;2351;50.812;12.872;2022-09-30T02:56:06;97142.03;;;7.64;97.42
5062;BME280;2351;50.812;12.872;2022-09-30T02:58:39;97146.34;;;7.65;97.21
5062;BME280;2351;50.812;12.872;2022-09-30T03:01:14;97144.41;;;7.67;97.34
5062;BME280;2351;50.812;12.872;2022-09-30T03:03:49;97140.94;;;7.66;97.25
5062;BME280;2351;50.812;12.872;2022-09-30T03:06:23;97145.38;;;7.66;97.52
5062;BME280;2351;50.812;12.872;2022-09-30T03:08:55;97140.09;;;7.66;97.32
5062;BME280;2351;50.812;12.872;2022-09-30T03:11:27;97153.28;;;7.66;97.60
5062;BME280;2351;50.812;12.872;2022-09-30T03:14:12;97154.13;;;7.66;97.53
5062;BME280;2351;50.812;12.872;2022-09-30T03:17:08;97152.31;;;7.67;97.88
5062;BME280;2351;50.812;12.872;2022-09-30T03:23:12;97165.34;;;7.68;97.88
5062;BME280;2351;50.812;12.872;2022-09-30T03:25:55;97169.34;;;7.63;97.55
5062;BME280;2351;50.812;12.872;2022-09-30T03:28:35;97168.78;;;7.59;97.87
5062;BME280;2351;50.812;12.872;2022-09-30T03:31:11;97170.59;;;7.59;98.26
5062;BME280;2351;50.812;12.872;2022-09-30T03:33:51;97166.41;;;7.56;97.86
5062;BME280;2351;50.812;12.872;2022-09-30T03:36:26;97162.09;;;7.55;98.15
5062;BME280;2351;50.812;12.872;2022-09-30T03:39:07;97176.13;;;7.56;98.53
5062;BME280;2351;50.812;12.872;2022-09-30T03:41:45;97173.59;;;7.54;98.35
5062;BME280;2351;50.812;12.872;2022-09-30T03:44:20;97183.31;;;7.53;98.57
5062;BME280;2351;50.812;12.872;2022-09-30T03:46:57;97185.94;;;7.53;98.26
5062;BME280;2351;50.812;12.872;2022-09-30T03:49:33;97189.28;;;7.56;98.34
5062;BME280;2351;50.812;12.872;2022-09-30T03:52:07;97188.31;;;7.57;98.54
5062;BME280;2351;50.812;12.872;2022-09-30T03:54:46;97185.53;;;7.58;98.40
5062;BME280;2351;50.812;12.872;2022-09-30T03:57:19;97190.69;;;7.60;98.57
5062;BME280;2351;50.812;12.872;2022-09-30T03:59:50;97195.09;;;7.59;98.81
5062;BME280;2351;50.812;12.872;2022-09-30T04:02:22;97192.47;;;7.59;98.56
5062;BME280;2351;50.812;12.872;2022-09-30T04:04:54;97197.63;;;7.61;98.73
5062;BME280;2351;50.812;12.872;2022-09-30T04:07:25;97201.91;;;7.62;98.79
5062;BME280;2351;50.812;12.872;2022-09-30T04:09:58;97200.13;;;7.62;99.15
5062;BME280;2351;50.812;12.872;2022-09-30T04:12:30;97186.81;;;7.64;99.07
5062;BME280;2351;50.812;12.872;2022-09-30T04:15:01;97192.06;;;7.64;99.12
5062;BME280;2351;50.812;12.872;2022-09-30T04:17:33;97193.03;;;7.63;98.72
5062;BME280;2351;50.812;12.872;2022-09-30T04:20:05;97188.06;;;7.60;98.68
5062;BME280;2351;50.812;12.872;2022-09-30T04:22:36;97188.56;;;7.53;98.79
5062;BME280;2351;50.812;12.872;2022-09-30T04:25:09;97191.63;;;7.49;98.85
5062;BME280;2351;50.812;12.872;2022-09-30T04:27:42;97200.59;;;7.46;98.84
5062;BME280;2351;50.812;12.872;2022-09-30T04:30:13;97199.19;;;7.42;99.16
5062;BME280;2351;50.812;12.872;2022-09-30T04:32:45;97206.38;;;7.40;98.89
5062;BME280;2351;50.812;12.872;2022-09-30T04:35:16;97197.91;;;7.36;98.90
5062;BME280;2351;50.812;12.872;2022-09-30T04:37:48;97201.50;;;7.35;98.80
5062;BME280;2351;50.812;12.872;2022-09-30T04:40:21;97199.97;;;7.33;98.93
5062;BME280;2351;50.812;12.872;2022-09-30T04:42:55;97207.16;;;7.31;99.06
5062;BME280;2351;50.812;12.872;2022-09-30T04:45:27;97205.50;;;7.30;99.21
5062;BME280;2351;50.812;12.872;2022-09-30T04:47:59;97211.56;;;7.30;99.36
5062;BME280;2351;50.812;12.872;2022-09-30T04:50:31;97223.78;;;7.31;98.91
5062;BME280;2351;50.812;12.872;2022-09-30T04:53:03;97232.63;;;7.30;99.01
5062;BME280;2351;50.812;12.872;2022-09-30T04:55:37;97230.00;;;7.30;99.17
5062;BME280;2351;50.812;12.872;2022-09-30T04:58:08;97234.44;;;7.30;99.23
5062;BME280;2351;50.812;12.872;2022-09-30T05:00:40;97229.19;;;7.30;99.12
5062;BME280;2351;50.812;12.872;2022-09-30T05:03:12;97230.97;;;7.29;99.34
5062;BME280;2351;50.812;12.872;2022-09-30T05:05:44;97237.09;;;7.30;99.46
5062;BME280;2351;50.812;12.872;2022-09-30T05:08:15;97240.69;;;7.29;99.65
5062;BME280;2351;50.812;12.872;2022-09-30T05:10:53;97248.44;;;7.30;99.54
5062;BME280;2351;50.812;12.872;2022-09-30T05:13:29;97251.91;;;7.31;99.57
5062;BME280;2351;50.812;12.872;2022-09-30T05:16:01;97253.59;;;7.32;99.65
5062;BME280;2351;50.812;12.872;2022-09-30T05:18:33;97256.06;;;7.33;99.47
5062;BME280;2351;50.812;12.872;2022-09-30T05:21:05;97253.34;;;7.35;99.84
5062;BME280;2351;50.812;12.872;2022-09-30T05:23:37;97257.63;;;7.36;99.93
5062;BME280;2351;50.812;12.872;2022-09-30T05:26:10;97262.06;;;7.35;99.88
5062;BME280;2351;50.812;12.872;2022-09-30T05:28:41;97261.94;;;7.37;100.00
5062;BME280;2351;50.812;12.872;2022-09-30T05:31:13;97265.38;;;7.37;100.00
5062;BME280;2351;50.812;12.872;2022-09-30T05:33:44;97268.88;;;7.38;99.95
5062;BME280;2351;50.812;12.872;2022-09-30T05:36:17;97272.19;;;7.40;99.94
5062;BME280;2351;50.812;12.872;2022-09-30T05:38:49;97280.78;;;7.42;100.00
5062;BME280;2351;50.812;12.872;2022-09-30T05:41:22;97280.69;;;7.44;100.00
5062;BME280;2351;50.812;12.872;2022-09-30T05:43:54;97283.19;;;7.45;100.00
5062;BME280;2351;50.812;12.872;2022-09-30T05:46:26;97283.88;;;7.47;100.00
5062;BME280;2351;50.812;12.872;2022-09-30T05:48:58;97290.72;;;7.50;100.00
5062;BME280;2351;50.812;12.872;2022-09-30T05:51:30;97287.94;;;7.51;100.00
5062;BME280;2351;50.812;12.872;2022-09-30T05:54:01;97286.81;;;7.54;100.00
5062;BME280;2351;50.812;12.872;2022-09-30T05:56:34;97286.47;;;7.59;100.00
5062;BME280;2351;50.812;12.872;2022-09-30T05:59:07;97295.06;;;7.61;100.00
5062;BME280;2351;50.812;12.872;2022-09-30T06:01:39;97291.19;;;7.65;100.00
5062;BME280;2351;50.812;12.872;2022-09-30T06:04:10;97296.09;;;7.69;100.00
5062;BME280;2351;50.812;12.872;2022-09-30T06:06:42;97294.97;;;7.72;100.00
5062;BME280;2351;50.812;12.872;2022-09-30T06:09:14;97295.53;;;7.76;100.00
5062;BME280;2351;50.812;12.872;2022-09-30T06:11:46;97289.19;;;7.78;100.00
5062;BME280;2351;50.812;12.872;2022-09-30T06:14:18;97292.25;;;7.83;100.00
5062;BME280;2351;50.812;12.872;2022-09-30T06:16:51;97299.78;;;7.88;100.00
5062;BME280;2351;50.812;12.872;2022-09-30T06:19:23;97299.28;;;7.94;100.00
5062;BME280;2351;50.812;12.872;2022-09-30T06:21:55;97304.16;;;7.99;100.00
5062;BME280;2351;50.812;12.872;2022-09-30T06:24:26;97314.16;;;8.05;100.00
5062;BME280;2351;50.812;12.872;2022-09-30T06:26:59;97319.03;;;8.10;100.00
5062;BME280;2351;50.812;12.872;2022-09-30T06:29:31;97324.88;;;8.13;100.00
5062;BME280;2351;50.812;12.872;2022-09-30T06:32:02;97318.38;;;8.18;100.00
5062;BME280;2351;50.812;12.872;2022-09-30T06:34:34;97315.47;;;8.21;100.00
5062;BME280;2351;50.812;12.872;2022-09-30T06:37:05;97323.13;;;8.24;100.00
5062;BME280;2351;50.812;12.872;2022-09-30T06:39:37;97324.66;;;8.26;100.00
5062;BME280;2351;50.812;12.872;2022-09-30T06:42:12;97325.34;;;8.28;100.00
5062;BME280;2351;50.812;12.872;2022-09-30T06:44:44;97330.09;;;8.35;100.00
5062;BME280;2351;50.812;12.872;2022-09-30T06:47:16;97336.91;;;8.37;100.00
5062;BME280;2351;50.812;12.872;2022-09-30T06:49:48;97333.03;;;8.41;100.00
5062;BME280;2351;50.812;12.872;2022-09-30T06:52:22;97338.75;;;8.47;100.00
5062;BME280;2351;50.812;12.872;2022-09-30T06:54:53;97345.44;;;8.51;100.00
5062;BME280;2351;50.812;12.872;2022-09-30T06:57:27;97344.09;;;8.56;100.00
5062;BME280;2351;50.812;12.872;2022-09-30T06:59:59;97348.94;;;8.61;100.00
5062;BME280;2351;50.812;12.872;2022-09-30T07:02:31;97351.31;;;8.64;100.00
5062;BME280;2351;50.812;12.872;2022-09-30T07:05:04;97356.34;;;8.67;100.00
5062;BME280;2351;50.812;12.872;2022-09-30T07:07:36;97349.69;;;8.73;100.00
5062;BME280;2351;50.812;12.872;2022-09-30T07:10:09;97345.91;;;8.76;100.00
5062;BME280;2351;50.812;12.872;2022-09-30T07:12:42;97353.72;;;8.77;100.00
5062;BME280;2351;50.812;12.872;2022-09-30T07:15:13;97356.22;;;8.79;100.00
5062;BME280;2351;50.812;12.872;2022-09-30T07:17:50;97356.91;;;8.81;100.00
5062;BME280;2351;50.812;12.872;2022-09-30T07:20:21;97360.94;;;8.85;100.00
5062;BME280;2351;50.812;12.872;2022-09-30T07:22:54;97367.38;;;8.92;100.00
5062;BME280;2351;50.812;12.872;2022-09-30T07:25:28;97374.88;;;8.97;100.00
5062;BME280;2351;50.812;12.872;2022-09-30T07:28:01;97375.41;;;9.00;100.00
5062;BME280;2351;50.812;12.872;2022-09-30T07:30:32;97376.00;;;9.04;100.00
5062;BME280;2351;50.812;12.872;2022-09-30T07:33:04;97373.22;;;9.06;100.00
5062;BME280;2351;50.812;12.872;2022-09-30T07:35:35;97369.34;;;9.10;100.00
5062;BME280;2351;50.812;12.872;2022-09-30T07:38:08;97371.72;;;9.13;100.00
5062;BME280;2351;50.812;12.872;2022-09-30T07:40:40;97381.00;;;9.17;100.00
5062;BME280;2351;50.812;12.872;2022-09-30T07:43:13;97386.59;;;9.24;100.00
5062;BME280;2351;50.812;12.872;2022-09-30T07:45:48;97390.47;;;9.29;100.00
5062;BME280;2351;50.812;12.872;2022-09-30T07:48:21;97391.03;;;9.33;100.00
5062;BME280;2351;50.812;12.872;2022-09-30T07:51:10;97388.97;;;9.37;100.00
5062;BME280;2351;50.812;12.872;2022-09-30T07:53:44;97393.94;;;9.40;100.00
5062;BME280;2351;50.812;12.872;2022-09-30T07:56:16;97392.16;;;9.40;100.00
5062;BME280;2351;50.812;12.872;2022-09-30T07:58:53;97399.09;;;9.41;100.00
5062;BME280;2351;50.812;12.872;2022-09-30T08:01:26;97409.53;;;9.43;100.00
5062;BME280;2351;50.812;12.872;2022-09-30T08:04:00;97408.53;;;9.44;100.00
5062;BME280;2351;50.812;12.872;2022-09-30T08:06:37;97414.69;;;9.44;100.00
5062;BME280;2351;50.812;12.872;2022-09-30T08:09:09;97414.53;;;9.46;100.00
5062;BME280;2351;50.812;12.872;2022-09-30T08:11:41;97409.94;;;9.48;100.00
5062;BME280;2351;50.812;12.872;2022-09-30T08:14:16;97409.69;;;9.51;100.00
5062;BME280;2351;50.812;12.872;2022-09-30T08:16:48;97407.72;;;9.53;100.00
5062;BME280;2351;50.812;12.872;2022-09-30T08:19:21;97409.81;;;9.59;100.00
5062;BME280;2351;50.812;12.872;2022-09-30T08:21:53;97404.94;;;9.64;100.00
5062;BME280;2351;50.812;12.872;2022-09-30T08:24:25;97409.50;;;9.72;100.00
5062;BME280;2351;50.812;12.872;2022-09-30T08:26:57;97404.22;;;9.82;100.00
5062;BME280;2351;50.812;12.872;2022-09-30T08:29:30;97405.75;;;9.94;100.00
5062;BME280;2351;50.812;12.872;2022-09-30T08:32:02;97409.34;;;10.03;100.00
5062;BME280;2351;50.812;12.872;2022-09-30T08:34:33;97416.47;;;10.03;100.00
5062;BME280;2351;50.812;12.872;2022-09-30T08:37:05;97416.84;;;10.08;100.00
5062;BME280;2351;50.812;12.872;2022-09-30T08:39:37;97407.09;;;10.18;100.00
5062;BME280;2351;50.812;12.872;2022-09-30T08:42:19;97414.56;;;10.33;100.00
5062;BME280;2351;50.812;12.872;2022-09-30T08:44:59;97416.50;;;10.50;100.00
5062;BME280;2351;50.812;12.872;2022-09-30T08:47:42;97417.44;;;10.69;100.00
5062;BME280;2351;50.812;12.872;2022-09-30T08:50:25;97421.31;;;10.93;100.00
5062;BME280;2351;50.812;12.872;2022-09-30T08:53:01;97424.47;;;11.06;100.00
5062;BME280;2351;50.812;12.872;2022-09-30T08:55:38;97417.97;;;11.19;100.00
5062;BME280;2351;50.812;12.872;2022-09-30T08:58:17;97424.75;;;11.31;100.00
5062;BME280;2351;50.812;12.872;2022-09-30T09:00:56;97424.91;;;11.48;100.00
5062;BME280;2351;50.812;12.872;2022-09-30T09:03:29;97429.47;;;11.73;100.00
5062;BME280;2351;50.812;12.872;2022-09-30T09:06:14;97425.09;;;12.00;100.00
5062;BME280;2351;50.812;12.872;2022-09-30T09:08:57;97434.44;;;12.39;100.00
5062;BME280;2351;50.812;12.872;2022-09-30T09:11:41;97423.53;;;12.69;100.00
5062;BME280;2351;50.812;12.872;2022-09-30T09:14:25;97420.00;;;13.03;100.00
5062;BME280;2351;50.812;12.872;2022-09-30T09:17:11;97426.22;;;13.28;100.00
5062;BME280;2351;50.812;12.872;2022-09-30T09:19:53;97422.97;;;13.43;100.00
5062;BME280;2351;50.812;12.872;2022-09-30T09:22:29;97426.31;;;13.45;94.60
5062;BME280;2351;50.812;12.872;2022-09-30T09:25:01;97420.81;;;13.46;85.23
5062;BME280;2351;50.812;12.872;2022-09-30T09:27:42;97429.13;;;13.43;83.83
5062;BME280;2351;50.812;12.872;2022-09-30T09:30:18;97428.72;;;13.30;80.77
5062;BME280;2351;50.812;12.872;2022-09-30T09:32:54;97430.34;;;13.22;73.99
5062;BME280;2351;50.812;12.872;2022-09-30T09:35:35;97427.53;;;13.16;76.21
5062;BME280;2351;50.812;12.872;2022-09-30T09:38:17;97426.34;;;13.10;70.51
5062;BME280;2351;50.812;12.872;2022-09-30T09:41:08;97423.34;;;13.05;72.70
5062;BME280;2351;50.812;12.872;2022-09-30T09:43:50;97421.22;;;13.17;75.72
5062;BME280;2351;50.812;12.872;2022-09-30T09:46:25;97419.56;;;13.16;73.25
5062;BME280;2351;50.812;12.872;2022-09-30T09:49:28;97411.75;;;13.22;76.24
5062;BME280;2351;50.812;12.872;2022-09-30T09:52:25;97420.44;;;13.33;75.74
5062;BME280;2351;50.812;12.872;2022-09-30T09:54:58;97415.13;;;13.33;73.71
5062;BME280;2351;50.812;12.872;2022-09-30T09:57:30;97416.03;;;13.15;67.82
5062;BME280;2351;50.812;12.872;2022-09-30T10:00:05;97420.06;;;13.19;68.47
5062;BME280;2351;50.812;12.872;2022-09-30T10:02:59;97420.06;;;13.19;67.22
5062;BME280;2351;50.812;12.872;2022-09-30T10:05:34;97414.41;;;13.22;68.05
5062;BME280;2351;50.812;12.872;2022-09-30T10:08:12;97416.66;;;13.44;70.58
5062;BME280;2351;50.812;12.872;2022-09-30T10:10:49;97405.53;;;13.48;68.83
5062;BME280;2351;50.812;12.872;2022-09-30T10:13:23;97410.53;;;13.51;69.05
5062;BME280;2351;50.812;12.872;2022-09-30T10:15:57;97412.03;;;13.62;68.49
5062;BME280;2351;50.812;12.872;2022-09-30T10:18:31;97416.84;;;13.67;66.50
5062;BME280;2351;50.812;12.872;2022-09-30T10:21:07;97415.34;;;13.56;61.79
5062;BME280;2351;50.812;12.872;2022-09-30T10:23:49;97421.16;;;13.60;64.10
5062;BME280;2351;50.812;12.872;2022-09-30T10:26:23;97417.69;;;13.59;61.91
5062;BME280;2351;50.812;12.872;2022-09-30T10:28:56;97425.00;;;13.65;62.35
5062;BME280;2351;50.812;12.872;2022-09-30T10:31:30;97427.03;;;13.88;62.29
5062;BME280;2351;50.812;12.872;2022-09-30T10:34:08;97419.84;;;14.05;62.67
5062;BME280;2351;50.812;12.872;2022-09-30T10:36:42;97422.84;;;14.19;62.67
5062;BME280;2351;50.812;12.872;2022-09-30T10:39:19;97421.50;;;14.31;61.08
5062;BME280;2351;50.812;12.872;2022-09-30T10:42:00;97417.50;;;14.27;58.79
5062;BME280;2351;50.812;12.872;2022-09-30T10:44:37;97418.16;;;14.37;60.11
5062;BME280;2351;50.812;12.872;2022-09-30T10:47:14;97414.63;;;14.53;61.13
5062;BME280;2351;50.812;12.872;2022-09-30T10:49:49;97419.75;;;14.71;60.90
5062;BME280;2351;50.812;12.872;2022-09-30T10:52:25;97412.44;;;14.73;58.17
5062;BME280;2351;50.812;12.872;2022-09-30T10:54:59;97411.28;;;14.76;58.27
5062;BME280;2351;50.812;12.872;2022-09-30T10:57:33;97424.38;;;14.86;58.33
5062;BME280;2351;50.812;12.872;2022-09-30T11:00:09;97423.66;;;15.00;59.46
5062;BME280;2351;50.812;12.872;2022-09-30T11:02:48;97416.56;;;15.24;59.88
5062;BME280;2351;50.812;12.872;2022-09-30T11:05:23;97417.38;;;15.25;58.72
5062;BME280;2351;50.812;12.872;2022-09-30T11:08:01;97424.50;;;15.32;58.69
5062;BME280;2351;50.812;12.872;2022-09-30T11:10:39;97415.97;;;15.37;57.32
5062;BME280;2351;50.812;12.872;2022-09-30T11:13:18;97404.53;;;15.28;57.78
5062;BME280;2351;50.812;12.872;2022-09-30T11:16:02;97407.38;;;15.27;57.42
5062;BME280;2351;50.812;12.872;2022-09-30T11:18:40;97408.22;;;15.27;57.12
5062;BME280;2351;50.812;12.872;2022-09-30T11:21:16;97413.66;;;15.34;57.43
5062;BME280;2351;50.812;12.872;2022-09-30T11:23:53;97405.31;;;15.37;57.28
5062;BME280;2351;50.812;12.872;2022-09-30T11:26:35;97403.13;;;15.41;56.68
5062;BME280;2351;50.812;12.872;2022-09-30T11:29:42;97396.13;;;15.40;56.72
5062;BME280;2351;50.812;12.872;2022-09-30T11:32:34;97390.91;;;15.46;56.73
5062;BME280;2351;50.812;12.872;2022-09-30T11:35:22;97400.63;;;15.62;57.14
5062;BME280;2351;50.812;12.872;2022-09-30T11:38:04;97389.06;;;15.70;57.03
5062;BME280;2351;50.812;12.872;2022-09-30T11:40:47;97393.50;;;15.78;56.25
5062;BME280;2351;50.812;12.872;2022-09-30T11:43:29;97389.84;;;15.79;56.90
5062;BME280;2351;50.812;12.872;2022-09-30T11:46:20;97391.28;;;15.90;56.50
5062;BME280;2351;50.812;12.872;2022-09-30T11:49:06;97379.91;;;15.96;56.50
5062;BME280;2351;50.812;12.872;2022-09-30T11:51:48;97378.44;;;15.93;55.60
5062;BME280;2351;50.812;12.872;2022-09-30T11:54:36;97382.69;;;15.79;54.59
5062;BME280;2351;50.812;12.872;2022-09-30T11:57:18;97385.81;;;15.83;55.27
5062;BME280;2351;50.812;12.872;2022-09-30T11:59:55;97380.84;;;16.03;55.71
5062;BME280;2351;50.812;12.872;2022-09-30T12:02:34;97376.06;;;16.14;56.11
5062;BME280;2351;50.812;12.872;2022-09-30T12:05:11;97379.06;;;16.34;57.79
5062;BME280;2351;50.812;12.872;2022-09-30T12:07:46;97368.09;;;16.59;58.12
5062;BME280;2351;50.812;12.872;2022-09-30T12:10:24;97374.81;;;16.69;55.43
5062;BME280;2351;50.812;12.872;2022-09-30T12:13:02;97370.28;;;16.70;55.57
5062;BME280;2351;50.812;12.872;2022-09-30T12:15:36;97368.56;;;16.77;54.96
5062;BME280;2351;50.812;12.872;2022-09-30T12:18:12;97365.22;;;16.60;54.09
5062;BME280;2351;50.812;12.872;2022-09-30T12:20:47;97369.28;;;16.71;52.90
5062;BME280;2351;50.812;12.872;2022-09-30T12:23:26;97368.00;;;16.67;52.00
5062;BME280;2351;50.812;12.872;2022-09-30T12:25:59;97373.06;;;16.32;49.75
5062;BME280;2351;50.812;12.872;2022-09-30T12:28:35;97368.16;;;16.05;51.01
5062;BME280;2351;50.812;12.872;2022-09-30T12:31:49;97374.13;;;16.22;51.27
5062;BME280;2351;50.812;12.872;2022-09-30T12:34:35;97367.53;;;16.48;51.44
5062;BME280;2351;50.812;12.872;2022-09-30T12:37:21;97359.72;;;16.62;51.14
5062;BME280;2351;50.812;12.872;2022-09-30T12:40:09;97360.25;;;16.57;51.06
5062;BME280;2351;50.812;12.872;2022-09-30T12:43:16;97361.38;;;16.48;50.72
5062;BME280;2351;50.812;12.872;2022-09-30T12:46:03;97369.19;;;16.34;50.55
5062;BME280;2351;50.812;12.872;2022-09-30T12:48:42;97368.72;;;16.31;50.95
5062;BME280;2351;50.812;12.872;2022-09-30T12:51:21;97373.72;;;16.34;50.93
5062;BME280;2351;50.812;12.872;2022-09-30T12:53:58;97364.63;;;16.43;51.12
5062;BME280;2351;50.812;12.872;2022-09-30T12:56:34;97370.13;;;16.56;51.29
5062;BME280;2351;50.812;12.872;2022-09-30T12:59:07;97368.19;;;16.65;50.99
5062;BME280;2351;50.812;12.872;2022-09-30T13:01:40;97375.75;;;16.77;51.02
5062;BME280;2351;50.812;12.872;2022-09-30T13:04:28;97369.56;;;16.76;50.66
5062;BME280;2351;50.812;12.872;2022-09-30T13:07:16;97370.47;;;16.83;51.10
5062;BME280;2351;50.812;12.872;2022-09-30T13:12:48;97376.41;;;16.64;48.25
5062;BME280;2351;50.812;12.872;2022-09-30T13:15:40;97376.09;;;16.29;49.49
5062;BME280;2351;50.812;12.872;2022-09-30T13:21:23;97382.00;;;15.86;51.03
5062;BME280;2351;50.812;12.872;2022-09-30T13:23:55;97391.00;;;15.85;50.83
5062;BME280;2351;50.812;12.872;2022-09-30T13:27:05;97385.00;;;15.82;51.09
5062;BME280;2351;50.812;12.872;2022-09-30T13:29:45;97393.50;;;15.78;52.13
5062;BME280;2351;50.812;12.872;2022-09-30T13:32:31;97400.59;;;15.71;52.09
5062;BME280;2351;50.812;12.872;2022-09-30T13:35:28;97400.00;;;15.60;52.38
5062;BME280;2351;50.812;12.872;2022-09-30T13:38:16;97398.47;;;15.34;52.68
5062;BME280;2351;50.812;12.872;2022-09-30T13:40:51;97401.22;;;15.26;53.03
5062;BME280;2351;50.812;12.872;2022-09-30T13:43:26;97402.69;;;15.29;53.51
5062;BME280;2351;50.812;12.872;2022-09-30T13:46:06;97405.47;;;15.35;53.75
5062;BME280;2351;50.812;12.872;2022-09-30T13:48:41;97412.13;;;15.40;54.22
5062;BME280;2351;50.812;12.872;2022-09-30T13:51:17;97408.88;;;15.52;53.80
5062;BME280;2351;50.812;12.872;2022-09-30T13:53:55;97403.50;;;15.61;53.66
5062;BME280;2351;50.812;12.872;2022-09-30T13:56:29;97401.53;;;15.55;53.58
5062;BME280;2351;50.812;12.872;2022-09-30T14:02:09;97405.03;;;15.24;53.24
5062;BME280;2351;50.812;12.872;2022-09-30T14:04:57;97411.47;;;15.38;53.68
5062;BME280;2351;50.812;12.872;2022-09-30T14:07:44;97408.28;;;15.65;54.22
5062;BME280;2351;50.812;12.872;2022-09-30T14:10:41;97411.09;;;15.95;54.42
5062;BME280;2351;50.812;12.872;2022-09-30T14:13:27;97412.22;;;16.01;52.83
5062;BME280;2351;50.812;12.872;2022-09-30T14:16:19;97419.75;;;15.98;53.56
5062;BME280;2351;50.812;12.872;2022-09-30T14:19:22;97412.78;;;15.96;53.02